Thamesville, Canada
Current Conditions -  °F | °C
As of 1:00 AM on Monday 26 Jan 2015 (Local Time) from CYCK Reporting Station
Overcast Overcast  
Wind Chill:   Ceiling: 11000
Heat Index: 16°   Visibility: 9mi
Dew Point:   Wind: 14mph
Humidity: 62%   Direction: 50°NE
Pressure: 29.96"   Gusts: NA
Location:  42.55°N, 81.97°W
Report Text: CYCK 260600Z AUTO 05012KT 9SM OVC110 M09/M15 A2996 RMK SLP156
Loading
Personal Weather Stations






























Interactive Weather Map New forecast layout! Learn more

10-Day Weather Forecast

Advertisements
Track Severe Weather on mobile